sensor_id;sensor_type;location;lat;lon;timestamp;pressure;altitude;pressure_sealevel;temperature
84354;BMP280;74538;43.522;1.516;2023-12-22T00:01:05;100832.25;;;19.19
84354;BMP280;74538;43.522;1.516;2023-12-22T00:03:31;100842.25;;;19.18
84354;BMP280;74538;43.522;1.516;2023-12-22T00:05:56;100837.28;;;19.17
84354;BMP280;74538;43.522;1.516;2023-12-22T00:08:21;100823.84;;;19.17
84354;BMP280;74538;43.522;1.516;2023-12-22T00:10:48;100828.50;;;19.16
84354;BMP280;74538;43.522;1.516;2023-12-22T00:13:14;100832.38;;;19.15
84354;BMP280;74538;43.522;1.516;2023-12-22T00:15:39;100820.84;;;19.15
84354;BMP280;74538;43.522;1.516;2023-12-22T00:18:05;100809.34;;;19.14
84354;BMP280;74538;43.522;1.516;2023-12-22T00:20:30;100804.38;;;19.13
84354;BMP280;74538;43.522;1.516;2023-12-22T00:22:55;100813.19;;;19.13
84354;BMP280;74538;43.522;1.516;2023-12-22T00:25:21;100813.66;;;19.12
84354;BMP280;74538;43.522;1.516;2023-12-22T00:27:46;100827.06;;;19.12
84354;BMP280;74538;43.522;1.516;2023-12-22T00:30:12;100817.50;;;19.11
84354;BMP280;74538;43.522;1.516;2023-12-22T00:32:37;100822.13;;;19.10
84354;BMP280;74538;43.522;1.516;2023-12-22T00:35:03;100829.41;;;19.10
84354;BMP280;74538;43.522;1.516;2023-12-22T00:37:29;100821.38;;;19.10
84354;BMP280;74538;43.522;1.516;2023-12-22T00:39:55;100831.34;;;19.09
84354;BMP280;74538;43.522;1.516;2023-12-22T00:42:20;100840.16;;;19.10
84354;BMP280;74538;43.522;1.516;2023-12-22T00:44:46;100844.78;;;19.09
84354;BMP280;74538;43.522;1.516;2023-12-22T00:47:11;100844.03;;;19.09
84354;BMP280;74538;43.522;1.516;2023-12-22T00:49:37;100857.13;;;19.07
84354;BMP280;74538;43.522;1.516;2023-12-22T00:52:03;100851.75;;;19.07
84354;BMP280;74538;43.522;1.516;2023-12-22T00:54:29;100846.38;;;19.07
84354;BMP280;74538;43.522;1.516;2023-12-22T00:56:57;100850.25;;;19.06
84354;BMP280;74538;43.522;1.516;2023-12-22T00:59:23;100854.09;;;19.05
84354;BMP280;74538;43.522;1.516;2023-12-22T01:01:49;100854.09;;;19.05
84354;BMP280;74538;43.522;1.516;2023-12-22T01:04:14;100841.84;;;19.04
84354;BMP280;74538;43.522;1.516;2023-12-22T01:06:40;100844.97;;;19.02
84354;BMP280;74538;43.522;1.516;2023-12-22T01:09:05;100832.31;;;19.03
84354;BMP280;74538;43.522;1.516;2023-12-22T01:11:31;100849.91;;;19.04
84354;BMP280;74538;43.522;1.516;2023-12-22T01:13:56;100841.53;;;19.02
84354;BMP280;74538;43.522;1.516;2023-12-22T01:16:22;100844.97;;;19.02
84354;BMP280;74538;43.522;1.516;2023-12-22T01:18:49;100837.34;;;19.01
84354;BMP280;74538;43.522;1.516;2023-12-22T01:21:16;100830.41;;;19.00
84354;BMP280;74538;43.522;1.516;2023-12-22T01:23:41;100835.03;;;18.99
84354;BMP280;74538;43.522;1.516;2023-12-22T01:26:07;100833.91;;;19.00
84354;BMP280;74538;43.522;1.516;2023-12-22T01:28:33;100827.75;;;19.00
84354;BMP280;74538;43.522;1.516;2023-12-22T01:30:59;100834.28;;;18.99
84354;BMP280;74538;43.522;1.516;2023-12-22T01:33:24;100839.66;;;18.99
84354;BMP280;74538;43.522;1.516;2023-12-22T01:35:49;100838.16;;;18.98
84354;BMP280;74538;43.522;1.516;2023-12-22T01:38:15;100838.16;;;18.98
84354;BMP280;74538;43.522;1.516;2023-12-22T01:40:40;100846.22;;;18.98
84354;BMP280;74538;43.522;1.516;2023-12-22T01:43:06;100857.38;;;18.96
84354;BMP280;74538;43.522;1.516;2023-12-22T01:45:31;100848.56;;;18.95
84354;BMP280;74538;43.522;1.516;2023-12-22T01:47:57;100858.56;;;18.95
84354;BMP280;74538;43.522;1.516;2023-12-22T01:50:23;100872.00;;;18.95
84354;BMP280;74538;43.522;1.516;2023-12-22T01:52:49;100870.47;;;18.94
84354;BMP280;74538;43.522;1.516;2023-12-22T01:55:14;100870.91;;;18.92
84354;BMP280;74538;43.522;1.516;2023-12-22T01:57:43;100880.50;;;18.93
84354;BMP280;74538;43.522;1.516;2023-12-22T02:00:10;100864.38;;;18.93
84354;BMP280;74538;43.522;1.516;2023-12-22T02:02:36;100869.00;;;18.93
84354;BMP280;74538;43.522;1.516;2023-12-22T02:05:04;100867.44;;;18.92
84354;BMP280;74538;43.522;1.516;2023-12-22T02:07:30;100862.09;;;18.92
84354;BMP280;74538;43.522;1.516;2023-12-22T02:09:56;100864.00;;;18.91
84354;BMP280;74538;43.522;1.516;2023-12-22T02:12:21;100862.50;;;18.90
84354;BMP280;74538;43.522;1.516;2023-12-22T02:14:47;100853.69;;;18.90
84354;BMP280;74538;43.522;1.516;2023-12-22T02:17:21;100852.19;;;18.89
84354;BMP280;74538;43.522;1.516;2023-12-22T02:19:50;100836.81;;;18.89
84354;BMP280;74538;43.522;1.516;2023-12-22T02:22:16;100839.50;;;18.89
84354;BMP280;74538;43.522;1.516;2023-12-22T02:24:42;100831.44;;;18.89
84354;BMP280;74538;43.522;1.516;2023-12-22T02:27:25;100846.84;;;18.89
84354;BMP280;74538;43.522;1.516;2023-12-22T02:30:12;100846.84;;;18.89
84354;BMP280;74538;43.522;1.516;2023-12-22T02:32:42;100832.31;;;18.86
84354;BMP280;74538;43.522;1.516;2023-12-22T02:35:15;100830.38;;;18.87
84354;BMP280;74538;43.522;1.516;2023-12-22T02:37:42;100820.06;;;18.85
84354;BMP280;74538;43.522;1.516;2023-12-22T02:40:08;100825.44;;;18.85
84354;BMP280;74538;43.522;1.516;2023-12-22T02:42:38;100828.53;;;18.84
84354;BMP280;74538;43.522;1.516;2023-12-22T02:45:13;100822.41;;;18.83
84354;BMP280;74538;43.522;1.516;2023-12-22T02:47:39;100819.72;;;18.83
84354;BMP280;74538;43.522;1.516;2023-12-22T02:50:05;100810.91;;;18.83
84354;BMP280;74538;43.522;1.516;2023-12-22T02:52:31;100824.75;;;18.81
84354;BMP280;74538;43.522;1.516;2023-12-22T02:54:58;100822.81;;;18.82
84354;BMP280;74538;43.522;1.516;2023-12-22T02:57:23;100814.00;;;18.81
84354;BMP280;74538;43.522;1.516;2023-12-22T02:59:48;100814.00;;;18.81
84354;BMP280;74538;43.522;1.516;2023-12-22T03:02:14;100804.44;;;18.80
84354;BMP280;74538;43.522;1.516;2023-12-22T03:04:40;100817.16;;;18.80
84354;BMP280;74538;43.522;1.516;2023-12-22T03:07:05;100811.78;;;18.80
84354;BMP280;74538;43.522;1.516;2023-12-22T03:09:31;100800.28;;;18.79
84354;BMP280;74538;43.522;1.516;2023-12-22T03:11:57;100804.91;;;18.79
84354;BMP280;74538;43.522;1.516;2023-12-22T03:14:30;100807.97;;;18.77
84354;BMP280;74538;43.522;1.516;2023-12-22T03:16:56;100804.13;;;18.78
84354;BMP280;74538;43.522;1.516;2023-12-22T03:19:22;100803.38;;;18.78
84354;BMP280;74538;43.522;1.516;2023-12-22T03:21:50;100809.50;;;18.78
84354;BMP280;74538;43.522;1.516;2023-12-22T03:24:16;100817.19;;;18.76
84354;BMP280;74538;43.522;1.516;2023-12-22T03:26:43;100811.81;;;18.76
84354;BMP280;74538;43.522;1.516;2023-12-22T03:29:09;100800.31;;;18.76
84354;BMP280;74538;43.522;1.516;2023-12-22T03:31:34;100796.88;;;18.75
84354;BMP280;74538;43.522;1.516;2023-12-22T03:34:00;100799.56;;;18.75
84354;BMP280;74538;43.522;1.516;2023-12-22T03:36:25;100789.28;;;18.74
84354;BMP280;74538;43.522;1.516;2023-12-22T03:38:50;100806.13;;;18.74
84354;BMP280;74538;43.522;1.516;2023-12-22T03:41:16;100810.75;;;18.74
84354;BMP280;74538;43.522;1.516;2023-12-22T03:43:41;100805.38;;;18.74
84354;BMP280;74538;43.522;1.516;2023-12-22T03:46:07;100811.16;;;18.72
84354;BMP280;74538;43.522;1.516;2023-12-22T03:48:32;100821.91;;;18.72
84354;BMP280;74538;43.522;1.516;2023-12-22T03:50:58;100811.94;;;18.73
84354;BMP280;74538;43.522;1.516;2023-12-22T03:53:23;100824.59;;;18.72
84354;BMP280;74538;43.522;1.516;2023-12-22T03:55:49;100823.09;;;18.71
84354;BMP280;74538;43.522;1.516;2023-12-22T03:58:14;100817.00;;;18.71
84354;BMP280;74538;43.522;1.516;2023-12-22T04:00:39;100822.75;;;18.69
84354;BMP280;74538;43.522;1.516;2023-12-22T04:03:05;100829.66;;;18.70
84354;BMP280;74538;43.522;1.516;2023-12-22T04:05:30;100820.06;;;18.69
84354;BMP280;74538;43.522;1.516;2023-12-22T04:07:56;100828.13;;;18.69
84354;BMP280;74538;43.522;1.516;2023-12-22T04:10:21;100821.22;;;18.68
84354;BMP280;74538;43.522;1.516;2023-12-22T04:12:46;100825.09;;;18.67
84354;BMP280;74538;43.522;1.516;2023-12-22T04:15:12;100825.09;;;18.67
84354;BMP280;74538;43.522;1.516;2023-12-22T04:17:38;100833.13;;;18.67
84354;BMP280;74538;43.522;1.516;2023-12-22T04:20:05;100835.81;;;18.67
84354;BMP280;74538;43.522;1.516;2023-12-22T04:22:31;100834.34;;;18.66
84354;BMP280;74538;43.522;1.516;2023-12-22T04:24:56;100831.66;;;18.66
84354;BMP280;74538;43.522;1.516;2023-12-22T04:27:21;100834.34;;;18.66
84354;BMP280;74538;43.522;1.516;2023-12-22T04:29:47;100831.66;;;18.66
84354;BMP280;74538;43.522;1.516;2023-12-22T04:32:12;100832.81;;;18.65
84354;BMP280;74538;43.522;1.516;2023-12-22T04:34:38;100834.00;;;18.64
84354;BMP280;74538;43.522;1.516;2023-12-22T04:37:03;100834.00;;;18.64
84354;BMP280;74538;43.522;1.516;2023-12-22T04:39:29;100830.56;;;18.64
84354;BMP280;74538;43.522;1.516;2023-12-22T04:41:54;100830.56;;;18.64
84354;BMP280;74538;43.522;1.516;2023-12-22T04:44:20;100827.13;;;18.63
84354;BMP280;74538;43.522;1.516;2023-12-22T04:46:45;100839.00;;;18.62
84354;BMP280;74538;43.522;1.516;2023-12-22T04:49:10;100836.31;;;18.62
84354;BMP280;74538;43.522;1.516;2023-12-22T04:51:36;100824.09;;;18.61
84354;BMP280;74538;43.522;1.516;2023-12-22T04:54:01;100825.25;;;18.60
84354;BMP280;74538;43.522;1.516;2023-12-22T04:56:26;100824.09;;;18.61
84354;BMP280;74538;43.522;1.516;2023-12-22T04:58:52;100830.63;;;18.60
84354;BMP280;74538;43.522;1.516;2023-12-22T05:01:17;100823.75;;;18.59
84354;BMP280;74538;43.522;1.516;2023-12-22T05:03:43;100823.00;;;18.58
84354;BMP280;74538;43.522;1.516;2023-12-22T05:06:09;100828.38;;;18.58
84354;BMP280;74538;43.522;1.516;2023-12-22T05:08:34;100837.19;;;18.59
84354;BMP280;74538;43.522;1.516;2023-12-22T05:11:00;100827.59;;;18.58
84354;BMP280;74538;43.522;1.516;2023-12-22T05:13:25;100829.53;;;18.57
84354;BMP280;74538;43.522;1.516;2023-12-22T05:15:50;100831.47;;;18.57
84354;BMP280;74538;43.522;1.516;2023-12-22T05:18:16;100833.41;;;18.56
84354;BMP280;74538;43.522;1.516;2023-12-22T05:20:41;100828.78;;;18.57
84354;BMP280;74538;43.522;1.516;2023-12-22T05:23:07;100829.97;;;18.56
84354;BMP280;74538;43.522;1.516;2023-12-22T05:25:32;100832.66;;;18.56
84354;BMP280;74538;43.522;1.516;2023-12-22T05:27:57;100839.19;;;18.55
84354;BMP280;74538;43.522;1.516;2023-12-22T05:30:23;100839.97;;;18.55
84354;BMP280;74538;43.522;1.516;2023-12-22T05:32:48;100851.44;;;18.56
84354;BMP280;74538;43.522;1.516;2023-12-22T05:35:14;100848.78;;;18.56
84354;BMP280;74538;43.522;1.516;2023-12-22T05:37:39;100861.44;;;18.55
84354;BMP280;74538;43.522;1.516;2023-12-22T05:40:05;100866.03;;;18.55
84354;BMP280;74538;43.522;1.516;2023-12-22T05:42:35;100866.03;;;18.55
84354;BMP280;74538;43.522;1.516;2023-12-22T05:45:00;100866.78;;;18.55
84354;BMP280;74538;43.522;1.516;2023-12-22T05:47:26;100871.41;;;18.55
84354;BMP280;74538;43.522;1.516;2023-12-22T05:49:51;100871.41;;;18.55
84354;BMP280;74538;43.522;1.516;2023-12-22T05:52:16;100882.16;;;18.55
84354;BMP280;74538;43.522;1.516;2023-12-22T05:54:42;100888.66;;;18.54
84354;BMP280;74538;43.522;1.516;2023-12-22T05:57:07;100885.97;;;18.54
84354;BMP280;74538;43.522;1.516;2023-12-22T05:59:33;100891.34;;;18.54
84354;BMP280;74538;43.522;1.516;2023-12-22T06:01:59;100891.34;;;18.54
84354;BMP280;74538;43.522;1.516;2023-12-22T06:04:25;100896.72;;;18.54
84354;BMP280;74538;43.522;1.516;2023-12-22T06:06:51;100900.56;;;18.53
84354;BMP280;74538;43.522;1.516;2023-12-22T06:09:16;100899.38;;;18.54
84354;BMP280;74538;43.522;1.516;2023-12-22T06:11:46;100910.13;;;18.54
84354;BMP280;74538;43.522;1.516;2023-12-22T06:14:11;100908.59;;;18.53
84354;BMP280;74538;43.522;1.516;2023-12-22T06:16:37;100917.41;;;18.53
84354;BMP280;74538;43.522;1.516;2023-12-22T06:19:02;100909.81;;;18.52
84354;BMP280;74538;43.522;1.516;2023-12-22T06:21:28;100906.69;;;18.53
84354;BMP280;74538;43.522;1.516;2023-12-22T06:23:54;100915.50;;;18.54
84354;BMP280;74538;43.522;1.516;2023-12-22T06:26:19;100915.19;;;18.52
84354;BMP280;74538;43.522;1.516;2023-12-22T06:28:45;100905.16;;;18.52
84354;BMP280;74538;43.522;1.516;2023-12-22T06:31:18;100899.81;;;18.52
84354;BMP280;74538;43.522;1.516;2023-12-22T06:33:44;100925.91;;;18.52
84354;BMP280;74538;43.522;1.516;2023-12-22T06:36:24;100911.28;;;18.53
84354;BMP280;74538;43.522;1.516;2023-12-22T06:38:53;100894.44;;;18.52
84354;BMP280;74538;43.522;1.516;2023-12-22T06:43:51;100892.94;;;18.51
84354;BMP280;74538;43.522;1.516;2023-12-22T06:46:21;100894.44;;;18.52
84354;BMP280;74538;43.522;1.516;2023-12-22T06:48:47;100894.44;;;18.52
84354;BMP280;74538;43.522;1.516;2023-12-22T06:51:21;100897.56;;;18.51
84354;BMP280;74538;43.522;1.516;2023-12-22T06:53:50;100901.00;;;18.51
84354;BMP280;74538;43.522;1.516;2023-12-22T06:56:20;100915.91;;;18.52
84354;BMP280;74538;43.522;1.516;2023-12-22T06:58:48;100900.25;;;18.51
84354;BMP280;74538;43.522;1.516;2023-12-22T07:01:26;100899.06;;;18.52
84354;BMP280;74538;43.522;1.516;2023-12-22T07:03:52;100909.81;;;18.52
84354;BMP280;74538;43.522;1.516;2023-12-22T07:06:18;100908.97;;;18.55
84354;BMP280;74538;43.522;1.516;2023-12-22T07:08:44;100901.25;;;18.57
84354;BMP280;74538;43.522;1.516;2023-12-22T07:11:10;100916.19;;;18.58
84354;BMP280;74538;43.522;1.516;2023-12-22T07:13:36;100907.31;;;18.61
84354;BMP280;74538;43.522;1.516;2023-12-22T07:16:02;100907.22;;;18.65
84354;BMP280;74538;43.522;1.516;2023-12-22T07:18:28;100916.34;;;18.67
84354;BMP280;74538;43.522;1.516;2023-12-22T07:20:57;100914.78;;;18.70
84354;BMP280;74538;43.522;1.516;2023-12-22T07:23:23;100923.94;;;18.72
84354;BMP280;74538;43.522;1.516;2023-12-22T07:25:49;100908.47;;;18.76
84354;BMP280;74538;43.522;1.516;2023-12-22T07:28:14;100912.28;;;18.79
84354;BMP280;74538;43.522;1.516;2023-12-22T07:30:40;100922.94;;;18.82
84354;BMP280;74538;43.522;1.516;2023-12-22T07:33:06;100905.97;;;18.85
84354;BMP280;74538;43.522;1.516;2023-12-22T07:35:31;100926.63;;;18.88
84354;BMP280;74538;43.522;1.516;2023-12-22T07:37:57;100925.78;;;18.91
84354;BMP280;74538;43.522;1.516;2023-12-22T07:40:22;100930.31;;;18.94
84354;BMP280;74538;43.522;1.516;2023-12-22T07:42:47;100932.16;;;18.98
84354;BMP280;74538;43.522;1.516;2023-12-22T07:45:14;100934.03;;;19.01
84354;BMP280;74538;43.522;1.516;2023-12-22T07:47:39;100940.47;;;19.03
84354;BMP280;74538;43.522;1.516;2023-12-22T07:50:05;100947.69;;;19.06
84354;BMP280;74538;43.522;1.516;2023-12-22T07:52:34;100951.47;;;19.09
84354;BMP280;74538;43.522;1.516;2023-12-22T07:55:04;100950.66;;;19.12
84354;BMP280;74538;43.522;1.516;2023-12-22T07:57:29;100945.59;;;19.14
84354;BMP280;74538;43.522;1.516;2023-12-22T07:59:54;100950.13;;;19.17
84354;BMP280;74538;43.522;1.516;2023-12-22T08:02:21;100955.84;;;19.19
84354;BMP280;74538;43.522;1.516;2023-12-22T08:04:46;100953.47;;;19.21
84354;BMP280;74538;43.522;1.516;2023-12-22T08:07:12;100964.16;;;19.24
84354;BMP280;74538;43.522;1.516;2023-12-22T08:09:37;100965.22;;;19.27
84354;BMP280;74538;43.522;1.516;2023-12-22T08:12:03;100966.34;;;19.29
84354;BMP280;74538;43.522;1.516;2023-12-22T08:14:28;100971.28;;;19.31
84354;BMP280;74538;43.522;1.516;2023-12-22T08:16:54;100963.13;;;19.35
84354;BMP280;74538;43.522;1.516;2023-12-22T08:19:19;100979.19;;;19.38
84354;BMP280;74538;43.522;1.516;2023-12-22T08:21:46;100980.69;;;19.39
84354;BMP280;74538;43.522;1.516;2023-12-22T08:24:12;100985.22;;;19.42
84354;BMP280;74538;43.522;1.516;2023-12-22T08:26:37;100977.47;;;19.44
84354;BMP280;74538;43.522;1.516;2023-12-22T08:29:02;100990.09;;;19.47
84354;BMP280;74538;43.522;1.516;2023-12-22T08:31:28;100990.41;;;19.49
84354;BMP280;74538;43.522;1.516;2023-12-22T08:33:53;100985.38;;;19.51
84354;BMP280;74538;43.522;1.516;2023-12-22T08:36:18;100981.84;;;19.54
84354;BMP280;74538;43.522;1.516;2023-12-22T08:38:44;100994.44;;;19.57
84354;BMP280;74538;43.522;1.516;2023-12-22T08:41:10;100991.31;;;19.59
84354;BMP280;74538;43.522;1.516;2023-12-22T08:43:37;100993.16;;;19.62
84354;BMP280;74538;43.522;1.516;2023-12-22T08:46:03;100995.44;;;19.63
84354;BMP280;74538;43.522;1.516;2023-12-22T08:48:29;100997.25;;;19.66
84354;BMP280;74538;43.522;1.516;2023-12-22T08:50:54;100997.63;;;19.68
84354;BMP280;74538;43.522;1.516;2023-12-22T08:53:20;100989.88;;;19.71
84354;BMP280;74538;43.522;1.516;2023-12-22T08:55:45;101003.66;;;19.73
84354;BMP280;74538;43.522;1.516;2023-12-22T08:58:11;101007.41;;;19.75
84354;BMP280;74538;43.522;1.516;2023-12-22T09:00:36;101002.03;;;19.75
84354;BMP280;74538;43.522;1.516;2023-12-22T09:03:01;101013.16;;;19.77
84354;BMP280;74538;43.522;1.516;2023-12-22T09:05:27;101020.47;;;19.77
84354;BMP280;74538;43.522;1.516;2023-12-22T09:07:53;101023.16;;;19.77
84354;BMP280;74538;43.522;1.516;2023-12-22T09:10:18;101023.53;;;19.75
84354;BMP280;74538;43.522;1.516;2023-12-22T09:12:44;101027.03;;;19.76
84354;BMP280;74538;43.522;1.516;2023-12-22T09:15:09;101015.91;;;19.74
84354;BMP280;74538;43.522;1.516;2023-12-22T09:17:35;101022.78;;;19.75
84354;BMP280;74538;43.522;1.516;2023-12-22T09:20:00;101032.06;;;19.74
84354;BMP280;74538;43.522;1.516;2023-12-22T09:22:26;101024.00;;;19.74
84354;BMP280;74538;43.522;1.516;2023-12-22T09:24:51;101026.34;;;19.72
84354;BMP280;74538;43.522;1.516;2023-12-22T09:27:17;101018.28;;;19.72
84354;BMP280;74538;43.522;1.516;2023-12-22T09:29:42;101011.38;;;19.71
84354;BMP280;74538;43.522;1.516;2023-12-22T09:32:07;101006.00;;;19.71
84354;BMP280;74538;43.522;1.516;2023-12-22T09:34:33;101017.97;;;19.70
84354;BMP280;74538;43.522;1.516;2023-12-22T09:36:58;101017.97;;;19.70
84354;BMP280;74538;43.522;1.516;2023-12-22T09:39:24;101012.59;;;19.70
84354;BMP280;74538;43.522;1.516;2023-12-22T09:41:50;101014.53;;;19.69
84354;BMP280;74538;43.522;1.516;2023-12-22T09:44:20;101027.22;;;19.68
84354;BMP280;74538;43.522;1.516;2023-12-22T09:46:48;101031.41;;;19.70
84354;BMP280;74538;43.522;1.516;2023-12-22T09:49:20;101027.22;;;19.68
84354;BMP280;74538;43.522;1.516;2023-12-22T09:51:47;101024.53;;;19.68
84354;BMP280;74538;43.522;1.516;2023-12-22T09:54:15;101036.03;;;19.69
84354;BMP280;74538;43.522;1.516;2023-12-22T09:56:40;101045.28;;;19.68
84354;BMP280;74538;43.522;1.516;2023-12-22T09:59:11;101040.66;;;19.68
84354;BMP280;74538;43.522;1.516;2023-12-22T10:01:43;101041.41;;;19.69
84354;BMP280;74538;43.522;1.516;2023-12-22T10:04:11;101053.34;;;19.68
84354;BMP280;74538;43.522;1.516;2023-12-22T10:06:37;101051.41;;;19.68
84354;BMP280;74538;43.522;1.516;2023-12-22T10:09:05;101059.88;;;19.67
84354;BMP280;74538;43.522;1.516;2023-12-22T10:11:32;101063.31;;;19.67
84354;BMP280;74538;43.522;1.516;2023-12-22T10:13:59;101074.06;;;19.67
84354;BMP280;74538;43.522;1.516;2023-12-22T10:16:25;101059.88;;;19.67
84354;BMP280;74538;43.522;1.516;2023-12-22T10:18:51;101059.09;;;19.66
84354;BMP280;74538;43.522;1.516;2023-12-22T10:21:17;101064.47;;;19.66
84354;BMP280;74538;43.522;1.516;2023-12-22T10:23:42;101065.66;;;19.65
84354;BMP280;74538;43.522;1.516;2023-12-22T10:26:11;101055.34;;;19.64
84354;BMP280;74538;43.522;1.516;2023-12-22T10:28:36;101045.34;;;19.64
84354;BMP280;74538;43.522;1.516;2023-12-22T10:31:02;101045.34;;;19.64
84354;BMP280;74538;43.522;1.516;2023-12-22T10:33:31;101046.53;;;19.63
84354;BMP280;74538;43.522;1.516;2023-12-22T10:35:58;101034.59;;;19.64
84354;BMP280;74538;43.522;1.516;2023-12-22T10:38:24;101044.59;;;19.64
84354;BMP280;74538;43.522;1.516;2023-12-22T10:40:50;101055.34;;;19.64
84354;BMP280;74538;43.522;1.516;2023-12-22T10:43:15;101053.41;;;19.64
84354;BMP280;74538;43.522;1.516;2023-12-22T10:45:41;101048.03;;;19.64
84354;BMP280;74538;43.522;1.516;2023-12-22T10:48:07;101048.03;;;19.64
84354;BMP280;74538;43.522;1.516;2023-12-22T10:50:32;101052.66;;;19.64
84354;BMP280;74538;43.522;1.516;2023-12-22T10:52:58;101043.84;;;19.63
84354;BMP280;74538;43.522;1.516;2023-12-22T10:55:23;101036.19;;;19.62
84354;BMP280;74538;43.522;1.516;2023-12-22T10:57:49;101034.25;;;19.62
84354;BMP280;74538;43.522;1.516;2023-12-22T11:00:16;101034.69;;;19.61
84354;BMP280;74538;43.522;1.516;2023-12-22T11:02:42;101037.41;;;19.61
84354;BMP280;74538;43.522;1.516;2023-12-22T11:05:10;101020.50;;;19.60
84354;BMP280;74538;43.522;1.516;2023-12-22T11:07:37;101010.13;;;19.59
84354;BMP280;74538;43.522;1.516;2023-12-22T11:10:07;101021.66;;;19.59
84354;BMP280;74538;43.522;1.516;2023-12-22T11:12:37;101024.75;;;19.58
84354;BMP280;74538;43.522;1.516;2023-12-22T11:15:04;101024.00;;;19.57
84354;BMP280;74538;43.522;1.516;2023-12-22T11:17:33;101020.56;;;19.57
84354;BMP280;74538;43.522;1.516;2023-12-22T11:20:01;101021.75;;;19.56
84354;BMP280;74538;43.522;1.516;2023-12-22T11:22:28;101008.31;;;19.56
84354;BMP280;74538;43.522;1.516;2023-12-22T11:24:54;101011.41;;;19.54
84354;BMP280;74538;43.522;1.516;2023-12-22T11:27:20;101000.66;;;19.54
84354;BMP280;74538;43.522;1.516;2023-12-22T11:29:50;100999.50;;;19.55
84354;BMP280;74538;43.522;1.516;2023-12-22T11:32:17;100999.50;;;19.55
84354;BMP280;74538;43.522;1.516;2023-12-22T11:34:44;101004.88;;;19.55
84354;BMP280;74538;43.522;1.516;2023-12-22T11:37:14;101000.25;;;19.56
84354;BMP280;74538;43.522;1.516;2023-12-22T11:39:40;100999.50;;;19.55
84354;BMP280;74538;43.522;1.516;2023-12-22T11:42:08;100996.34;;;19.57
84354;BMP280;74538;43.522;1.516;2023-12-22T11:44:35;101004.88;;;19.55
84354;BMP280;74538;43.522;1.516;2023-12-22T11:47:08;101007.09;;;19.57
84354;BMP280;74538;43.522;1.516;2023-12-22T11:49:34;100995.63;;;19.56
84354;BMP280;74538;43.522;1.516;2023-12-22T11:52:09;100995.63;;;19.56
84354;BMP280;74538;43.522;1.516;2023-12-22T11:54:48;100992.50;;;19.58
84354;BMP280;74538;43.522;1.516;2023-12-22T11:59:52;100980.97;;;19.57
84354;BMP280;74538;43.522;1.516;2023-12-22T12:02:17;100972.91;;;19.57
84354;BMP280;74538;43.522;1.516;2023-12-22T12:04:43;100972.91;;;19.57
84354;BMP280;74538;43.522;1.516;2023-12-22T12:10:01;100972.91;;;19.57
84354;BMP280;74538;43.522;1.516;2023-12-22T12:12:27;100964.09;;;19.57
84354;BMP280;74538;43.522;1.516;2023-12-22T12:14:56;100966.06;;;19.56
84354;BMP280;74538;43.522;1.516;2023-12-22T12:17:23;100970.22;;;19.57
84354;BMP280;74538;43.522;1.516;2023-12-22T12:19:49;100951.84;;;19.56
84354;BMP280;74538;43.522;1.516;2023-12-22T12:22:16;100956.47;;;19.55
84354;BMP280;74538;43.522;1.516;2023-12-22T12:24:42;100954.09;;;19.57
84354;BMP280;74538;43.522;1.516;2023-12-22T12:27:08;100958.00;;;19.56
84354;BMP280;74538;43.522;1.516;2023-12-22T12:29:34;100958.00;;;19.56
84354;BMP280;74538;43.522;1.516;2023-12-22T12:32:04;100951.09;;;19.55
84354;BMP280;74538;43.522;1.516;2023-12-22T12:34:31;100950.34;;;19.55
84354;BMP280;74538;43.522;1.516;2023-12-22T12:36:56;100958.41;;;19.55
84354;BMP280;74538;43.522;1.516;2023-12-22T12:39:22;100946.91;;;19.54
84354;BMP280;74538;43.522;1.516;2023-12-22T12:41:54;100952.28;;;19.54
84354;BMP280;74538;43.522;1.516;2023-12-22T12:44:20;100948.41;;;19.55
84354;BMP280;74538;43.522;1.516;2023-12-22T12:46:46;100947.97;;;19.57
84354;BMP280;74538;43.522;1.516;2023-12-22T12:49:12;100944.84;;;19.58
84354;BMP280;74538;43.522;1.516;2023-12-22T12:51:41;100942.53;;;19.60
84354;BMP280;74538;43.522;1.516;2023-12-22T12:54:08;100958.56;;;19.64
84354;BMP280;74538;43.522;1.516;2023-12-22T12:56:41;100940.81;;;19.66
84354;BMP280;74538;43.522;1.516;2023-12-22T12:59:08;100935.78;;;19.68
84354;BMP280;74538;43.522;1.516;2023-12-22T13:01:40;100930.28;;;19.72
84354;BMP280;74538;43.522;1.516;2023-12-22T13:04:06;100931.34;;;19.75
84354;BMP280;74538;43.522;1.516;2023-12-22T13:06:32;100926.66;;;19.79
84354;BMP280;74538;43.522;1.516;2023-12-22T13:08:58;100915.03;;;19.82
84354;BMP280;74538;43.522;1.516;2023-12-22T13:11:27;100907.94;;;19.88
84354;BMP280;74538;43.522;1.516;2023-12-22T13:13:53;100914.34;;;19.94
84354;BMP280;74538;43.522;1.516;2023-12-22T13:16:24;100913.81;;;19.99
84354;BMP280;74538;43.522;1.516;2023-12-22T13:18:55;100897.47;;;20.06
84354;BMP280;74538;43.522;1.516;2023-12-22T13:21:21;100905.75;;;20.12
84354;BMP280;74538;43.522;1.516;2023-12-22T13:23:47;100892.84;;;20.19
84354;BMP280;74538;43.522;1.516;2023-12-22T13:26:19;100892.31;;;20.24
84354;BMP280;74538;43.522;1.516;2023-12-22T13:28:45;100895.25;;;20.30
84354;BMP280;74538;43.522;1.516;2023-12-22T13:31:12;100875.06;;;20.34
84354;BMP280;74538;43.522;1.516;2023-12-22T13:33:39;100883.38;;;20.40
84354;BMP280;74538;43.522;1.516;2023-12-22T13:36:05;100886.72;;;20.44
84354;BMP280;74538;43.522;1.516;2023-12-22T13:38:31;100883.59;;;20.46
84354;BMP280;74538;43.522;1.516;2023-12-22T13:40:57;100876.16;;;20.50
84354;BMP280;74538;43.522;1.516;2023-12-22T13:43:22;100873.78;;;20.52
84354;BMP280;74538;43.522;1.516;2023-12-22T13:45:52;100883.69;;;20.55
84354;BMP280;74538;43.522;1.516;2023-12-22T13:48:18;100881.31;;;20.57
84354;BMP280;74538;43.522;1.516;2023-12-22T13:50:57;100874.72;;;20.58
84354;BMP280;74538;43.522;1.516;2023-12-22T13:53:24;100879.72;;;20.59
84354;BMP280;74538;43.522;1.516;2023-12-22T13:55:56;100875.09;;;20.60
84354;BMP280;74538;43.522;1.516;2023-12-22T13:58:21;100880.78;;;20.62
84354;BMP280;74538;43.522;1.516;2023-12-22T14:00:47;100884.97;;;20.63